Portada
METAR-TAF:

METAR-TAF

Aeropuertos :

Aeropuerto de Alicante-Elche

Alicante, España

latitud: 38-17N, longitud: 000-33W, altitud: 43 m

Observación

El informe se hizo hace 31 minutos, a las 21:30 UTC
Viento 2 kt con dirección variable
Temperatura 15°C
Humedad 82%
Presión 1018 hPa
Visibilidad 10 km o más
sin nubes por debajo de 1500 m y sin presencia de cumulonimbus.

METAR: LEAL 162130Z VRB02KT CAVOK 15/12 Q1018 NOSIG

Hora: 00:01 (22:01 UTC)

Pronóstico

El informe se hizo hace 5 horas y 1 minutos, a las 17:00 UTC
Pronóstico válido del 16 a las 18 UTC al 17 a las 18 UTC
Viento 10 kt del sur
Visibilidad 10 km o más
Escasas nubes a una altura de 3000 ft
Evolucionando progresivamente
del 16 a las 18 UTC al 16 a las 20 UTC
Viento 5 kt del oeste
Temporalmente
del 17 a las 14 UTC al 17 a las 16 UTC
Viento 10 kt del sur

TAF: LEAL 161700Z 1618/1718 18010KT 9999 FEW030 TX26/1712Z TN13/1706Z BECMG 1618/1620 28005KT TEMPO 1714/1716 18010KT

Observaciones y pronósticos meteorológicos de más de 4000 aeropuertos (mensajes METAR y TAF).

Los puntos amarillos y rojos representan las estaciones disponibles.

Ponga el ratón en el punto deseado para ver el nombre de la estación.

Haga clic para ver las observaciones y los pronósticos meteorológicos.

Para cambiar el mapa : haga clic en los botones verdes con una cruz de color negro para hacer un zoom, en el botón verde con un guión para alejar o en las flechas verdes para mapas adyacentes.


METAR-TAF: